INDIA METEOROLOGICAL DEPARTMENT, R.M.C. NEW DELHI
Dated:2 - 4 - 2015
METARS


Agartala   
VEAT 020730Z 23014KT 5000 HZ SCT018 SCT025 33/24 Q1004 NOSIG=
Ahmedabad  
VAAH 020740Z 27009KT 6000 NSC 37/15 Q1008 NOSIG=
Amritsar   
VIAR 020730Z 08009KT 6000 SCT040 SCT200 28/17 Q1009=
Aurangabad 
VAAU 020600Z 27003KT 6000 NSC 34/11 Q1013=
Bangalore  
VOBL 020730Z 17005KT 9999 SCT015 35/16 Q1015 NOSIG=
Baroda     
VABO 020700Z 24008KT 6000 NSC 34/17 Q1009 NOSIG=
Bhaunagar  
VABV 020600Z 29005KT 6000 NSC 34/14 Q1010=
Bhopal     
VABP 020700Z 32006KT 8000 NSC 35/12 Q1011 NOSIG=
Bhubaneswar
VEBS 020730Z 18010KT 5000 HZ FEW020 38/25 Q1006 NOSIG=
Bhuntar    
SPECI VIBR 020700Z 00000KT 6000 SCT015 SCT030 BKN080 14/12 Q1017=
Chennai    
VOMM 020740Z 14008KT 8000 FEW020 35/24 Q1008 NOSIG=
Coimbatore 
VOCB 020730Z 13003KT 8000 SCT015 34/19 Q1011 NOSIG=
Colombo    
VCBI 020740Z 25008KT 220V290 9999 SCT016 31/23 Q1009 NOSIG=
Delhi      
VIDP 020700Z 13009KT 3500 HZ SCT100 32/12 Q1008 NOSIG =
Dehradun   
VIDN 020730Z 25006KT 6000 FEW040 29/16 Q1009=
Gauhati    
VEGT 020730Z 01007KT 6000 SCT018 FEW025CB BKN100 25/19 Q1005 NOSIG CB TO N/E=
Gaya       
VEGY 020730Z 28015KT 6000 NSC 38/11 Q1005 NOSIG=
Gaggal     
VIGG 020730Z 03004KT 5000 DZ BKN030 OVC080 17/15 Q1012=
Fursatganj
VIRB 020700Z 25004KT 6000 NSC 34/15 Q1005=
Hyderabad  
VOHS 020710Z 21008KT 6000 SCT020 40/22 Q1013 NOSIG=
Imphal     
VEIM 020700Z 13009KT 3000 TSRA FEW010 SCT018 FEW025CB BKN090 20/18 Q1011 NOSIG CBTO W/SW =
Indore     
VAID 020700Z 26013KT 6000 NSC 34/09 Q1012 NOSIG=
Jabalpur   
VAJB 020600Z 32006KT 6000 NSC 33/07 Q1011=
Jaipur     
VIJP 020730Z 21007KT 3000 HZ FEW100 33/16 Q1008 NOSIG=
Khajuraho  
VAKJ 020600Z 25006KT 6000 NSC 36/15 Q1009=
Kochi      
VOCI 020730Z 20008KT 5000 HZ FEW015 SCT020 33/24 Q1009 NOSIG=
Kolkata    
VECC 020720Z 21007KT 3200 HZ NSC 35/24 Q1005 NOSIG=
Kozhikode  
VOCL 020730Z 27006KT 8000 SCT015 32/24 Q1009 NOSIG =
Lucknow    
VILK 020730Z 33005KT 6000 FEW020 34/14 Q1006 NOSIG=
Ludhiana
VILD 020700Z 09003KT 5000 HZ NSC 29/14 Q1008=
Madurai    
VOMD 020730Z 18003KT 7000 FEW020 SCT100 34/21 Q1010 =
Mohanbari  
VEMN 020730Z 04010KT 3000 -RA FEW007 SCT018 FEW025CB BKN090 19/18 Q1008 NOSIG=
Mumbai     
VABB 020740Z 27007G17KT 3000 FU NSC 32/17 Q1009 NOSIG=
Nagpur     
VANP 020710Z 07002KT 7000 NSC 38/09 Q1009 NOSIG=
Patna      
VEPT 020720Z 30006KT 5000 HZ FEW100 35/16 Q1004 NOSIG=
Raipur     
VARP 020700Z 28010KT 6000 FEW030 37/15 Q1009 NOSIG=
Safdarjung
VIDD 020700Z 12005KT 4000 HZ NSC 33/18 Q1007 NOSIG=
Shimla    
SPECI VISM 020700Z 00000KT 6000 FEW050 21/11 Q1016=
Ranchi     
VERC 020730Z 25006KT 6000 FEW020 34/10 Q1010 NOSIG=
Trichy     
VOTR 020740Z 14005KT 8000 FEW016 SCT020 36/22 Q1009 NOSIG=
Trivandrum 
VOTV 020710Z 16005KT 6000 SCT015 SCT090 33/24 Q1009 NOSIG=
Udaipur    
VAUD 020700Z 25008KT 6000 NSC 34/13 Q1010 NOSIG=
Varanasi   
VIBN 020730Z 27005KT 6000 NSC 36/15 Q1006=
Vizag      
VOVZ 020700Z 22010KT 6000 FEW018 35/25 Q1008 NOSIG =
Male       
VRMM 021100Z 14006KT 9999 STC017 FEW018CB 31/25 Q1012 CB W NOSIG=
Gan        
VRMG 020700Z 12007KT 9999 FEW018 SCT120 BKN260 32/26 Q1010=
Kathmandu   
VNKT 020720Z 16008KT 9999 FEW020 SCT030 24/11 Q1011 NOSIG=
Dhaka      
VGHS 020650Z 19005KT 4000 HZ SCT015 BKN100 31/24 Q1005 NOSIG=
Colombo     
VCBI 020740Z 25008KT 220V290 9999 SCT016 31/23 Q1009 NOSIG=
Karachi     
OPKC 020725Z 24015KT 7000 FEW020 30/21 Q1008 NOSIG=
Lahore      
OPLA 020725Z 09010KT 9000 SCT100 26/13 Q1009=
Leh        
VILH 020630Z 29014KT 6000 FEW040 SCT060 07/M04 Q1017 TEMPO-RA=
Thoise     
VITX 020630Z VRB02KT 6000 SCT050 BKN100 10/M04 Q1017 NOSIG=
Sri Nagar  
VISR 020630Z 34003KT 6000 FUHZ SCT015 SCT020 BKN080 10/10 Q1019 TEMPO-RA=
Jammu      
VIJU 020630Z 23003KT 6000 SCT025 BKN090 23/16 Q1009 NOSIG=
Jodhpur    
VIJO 020630Z 25008KT 6000 SKC 31/19 Q1008 NOSIG=
Bhuj-Rudra 
VABJ 020630Z 27008KT 6000 SKC 34/17 Q1010 NOSIG=
Gorakhpur  
VEGK 020630Z 29010KT 6000 SKC 33/14 Q1006 NOSIG=
Allahabad  
VIAL 020630Z 02006KT 6000 FEW100 34/17 Q1007 NOSIG=
Agra       
VIAG 020630Z 11007KT 6000 FEW250 33/14 Q1007 NOSIG=
Siliguri   
VEBD 020630Z 11005KT 6000 SCT025 SCT090 26/20 Q1007 NOSIG=
Gwalior    
VIGR 020630Z 12004KT 8000 FEW250 33/15 Q1007 NOSIG=
Pune       
VAPO 020630Z 25005KT 6000 SKC 35/05 Q1015 NOSIG=
Chandigarh 
VICG 020630Z 14003KT 6000 FEW250 31/12 Q1009 NOSIG=
Jamnagar   
VAJM 020630Z 28014KT 6000 SKC 33/17 Q1010 NOSIG=